Adamant, Vermont
Current Conditions -  °F | °C
As of 7:51 AM on Friday 24 Oct 2014 (Local Time) from KMPV Reporting Station
Overcast Overcast  
Wind Chill: 34°   Ceiling: 400
Heat Index: 40°   Visibility: 10mi
Dew Point: 38°   Wind: 8mph
Humidity: 93%   Direction: 310°NW
Pressure: 29.83"   Gusts: NA
Location:  44.33°N, 72.5°W
Report Text: KMPV 241151Z AUTO 31007KT 10SM OVC004 04/03 A2983 RMK AO2 CIG 002V007 SLP110 60009 70065 T00440033 10061 20044 53007 $
Loading
Personal Weather Stations






























Interactive Weather Map
Tropical Storm Tracking
New forecast layout! Learn more

10-Day Weather Forecast

Advertisements
Track Severe Weather on mobile